Observation data for Brownfield on 01/09/2019      Previous  Date  Next       Current Mesonet Observations  Soil Data  Daily Summary Page  Observations in Plain Language
KBWS 090600Z 03004KT 04/M06 A3052 RMK A01 T00411063  RH  047%=      5-min Rain = 0
KBWS 090605Z 04004KT 04/M06 A3052 RMK A01 T00421063  RH  047%=      5-min Rain = 0
KBWS 090610Z 03005KT 04/M06 A3052 RMK A01 T00421063  RH  047%=      5-min Rain = 0
KBWS 090615Z 03005KT 04/M06 A3052 RMK A01 T00421062  RH  047%=      5-min Rain = 0
KBWS 090620Z 03005KT 04/M06 A3052 RMK A01 T00431062  RH  047%=      5-min Rain = 0
KBWS 090625Z 03005KT 04/M06 A3051 RMK A01 T00421060  RH  048%=      5-min Rain = 0
KBWS 090630Z 03006KT 04/M06 A3051 RMK A01 T00411060  RH  048%=      5-min Rain = 0
KBWS 090635Z 03006KT 04/M06 A3051 RMK A01 T00401060  RH  049%=      5-min Rain = 0
KBWS 090640Z 03006KT 04/M06 A3051 RMK A01 T00391060  RH  049%=      5-min Rain = 0
KBWS 090645Z 03007KT 04/M06 A305 RMK A01 T00401060  RH  049%=      5-min Rain = 0
KBWS 090650Z 03006KT 04/M06 A305 RMK A01 T00381060  RH  049%=      5-min Rain = 0
KBWS 090655Z 03006KT 04/M06 A305 RMK A01 T00381060  RH  049%=      5-min Rain = 0
KBWS 090700Z 04007KT 04/M06 A305 RMK A01 T00391060  RH  049%=      5-min Rain = 0
KBWS 090705Z 03007KT 04/M06 A305 RMK A01 T00401059  RH  049%=      5-min Rain = 0
KBWS 090710Z 03007KT 04/M06 A305 RMK A01 T00401058  RH  049%=      5-min Rain = 0
KBWS 090715Z 03006KT 04/M06 A305 RMK A01 T00401058  RH  050%=      5-min Rain = 0
KBWS 090720Z 03006KT 04/M06 A305 RMK A01 T00401057  RH  050%=      5-min Rain = 0
KBWS 090725Z 03007KT 04/M06 A305 RMK A01 T00411058  RH  049%=      5-min Rain = 0
KBWS 090730Z 04007KT 04/M06 A305 RMK A01 T00421058  RH  049%=      5-min Rain = 0
KBWS 090735Z 04007KT 04/M06 A305 RMK A01 T00421058  RH  048%=      5-min Rain = 0
KBWS 090740Z 03006KT 04/M06 A3051 RMK A01 T00421058  RH  049%=      5-min Rain = 0
KBWS 090745Z 03005KT 04/M06 A3051 RMK A01 T00411057  RH  050%=      5-min Rain = 0
KBWS 090750Z 03006KT 04/M06 A3051 RMK A01 T00411058  RH  049%=      5-min Rain = 0
KBWS 090755Z 03006KT 04/M06 A3051 RMK A01 T00401056  RH  050%=      5-min Rain = 0
KBWS 090800Z 04006KT 04/M06 A3051 RMK A01 T00391057  RH  050%=      5-min Rain = 0
KBWS 090805Z 04007KT 04/M06 A3051 RMK A01 T00401058  RH  049%=      5-min Rain = 0
KBWS 090810Z 03006KT 04/M06 A3051 RMK A01 T00401058  RH  049%=      5-min Rain = 0
KBWS 090815Z 03006KT 04/M06 A3051 RMK A01 T00391057  RH  050%=      5-min Rain = 0
KBWS 090820Z 03006KT 04/M06 A3051 RMK A01 T00391057  RH  050%=      5-min Rain = 0
KBWS 090825Z 03006KT 04/M06 A3051 RMK A01 T00391056  RH  051%=      5-min Rain = 0
KBWS 090830Z 02006KT 04/M06 A3051 RMK A01 T00381055  RH  051%=      5-min Rain = 0
KBWS 090835Z 02006KT 04/M06 A3052 RMK A01 T00381055  RH  051%=      5-min Rain = 0
KBWS 090840Z 03005KT 04/M06 A3052 RMK A01 T00381055  RH  051%=      5-min Rain = 0
KBWS 090845Z 02004KT 04/M06 A3052 RMK A01 T00371055  RH  052%=      5-min Rain = 0
KBWS 090850Z 01004KT 04/M05 A3052 RMK A01 T00361054  RH  052%=      5-min Rain = 0
KBWS 090855Z 02004KT 04/M05 A3052 RMK A01 T00351054  RH  052%=      5-min Rain = 0
KBWS 090900Z 03004KT 04/M06 A3052 RMK A01 T00351055  RH  052%=      5-min Rain = 0
KBWS 090905Z 04004KT 04/M05 A3052 RMK A01 T00351054  RH  053%=      5-min Rain = 0
KBWS 090910Z 04004KT 03/M05 A3052 RMK A01 T00341053  RH  053%=      5-min Rain = 0
KBWS 090915Z 03005KT 03/M05 A3052 RMK A01 T00341053  RH  053%=      5-min Rain = 0
KBWS 090920Z 03004KT 03/M05 A3051 RMK A01 T00341053  RH  053%=      5-min Rain = 0
KBWS 090925Z 04004KT 03/M05 A3052 RMK A01 T00341054  RH  053%=      5-min Rain = 0
KBWS 090930Z 04004KT 04/M05 A3051 RMK A01 T00351053  RH  053%=      5-min Rain = 0
KBWS 090935Z 04005KT 04/M05 A3051 RMK A01 T00351053  RH  053%=      5-min Rain = 0
KBWS 090940Z 04005KT 03/M05 A3051 RMK A01 T00341053  RH  053%=      5-min Rain = 0
KBWS 090945Z 04005KT 04/M05 A3052 RMK A01 T00351053  RH  053%=      5-min Rain = 0
KBWS 090950Z 04005KT 04/M05 A3052 RMK A01 T00351054  RH  053%=      5-min Rain = 0
KBWS 090955Z 02005KT 04/M05 A3052 RMK A01 T00351053  RH  053%=      5-min Rain = 0
KBWS 091000Z 02006KT 03/M05 A3052 RMK A01 T00341053  RH  053%=      5-min Rain = 0
KBWS 091005Z 04006KT 04/M06 A3052 RMK A01 T00361055  RH  052%=      5-min Rain = 0
KBWS 091010Z 05006KT 04/M06 A3052 RMK A01 T00371057  RH  051%=      5-min Rain = 0
KBWS 091015Z 05005KT 04/M06 A3052 RMK A01 T00371055  RH  052%=      5-min Rain = 0
KBWS 091020Z 05005KT 04/M06 A3052 RMK A01 T00371055  RH  052%=      5-min Rain = 0
KBWS 091025Z 05003KT 04/M06 A3053 RMK A01 T00371056  RH  051%=      5-min Rain = 0
KBWS 091030Z 05003KT 04/M06 A3053 RMK A01 T00371057  RH  051%=      5-min Rain = 0
KBWS 091035Z 05004KT 04/M06 A3053 RMK A01 T00361055  RH  052%=      5-min Rain = 0
KBWS 091040Z 05005KT 04/M05 A3052 RMK A01 T00361054  RH  052%=      5-min Rain = 0
KBWS 091045Z 05005KT 04/M05 A3052 RMK A01 T00361054  RH  052%=      5-min Rain = 0
KBWS 091050Z 05005KT 04/M06 A3052 RMK A01 T00361055  RH  052%=      5-min Rain = 0
KBWS 091055Z 05004KT 04/M06 A3053 RMK A01 T00361056  RH  052%=      5-min Rain = 0
KBWS 091100Z 04004KT 04/M06 A3053 RMK A01 T00361058  RH  051%=      5-min Rain = 0
KBWS 091105Z 04004KT 04/M06 A3053 RMK A01 T00361059  RH  050%=      5-min Rain = 0
KBWS 091110Z 04003KT 04/M06 A3053 RMK A01 T00361059  RH  051%=      5-min Rain = 0
KBWS 091115Z 04002KT 04/M06 A3054 RMK A01 T00351059  RH  051%=      5-min Rain = 0
KBWS 091120Z 06003KT 04/M06 A3054 RMK A01 T00351056  RH  052%=      5-min Rain = 0
KBWS 091125Z 06003KT 04/M05 A3054 RMK A01 T00351053  RH  053%=      5-min Rain = 0
KBWS 091130Z 05002KT 04/M05 A3054 RMK A01 T00351053  RH  053%=      5-min Rain = 0
KBWS 091135Z 06002KT 03/M05 A3054 RMK A01 T00341054  RH  053%=      5-min Rain = 0
KBWS 091140Z 04003KT 03/M05 A3054 RMK A01 T00331052  RH  054%=      5-min Rain = 0
KBWS 091145Z 05003KT 03/M05 A3054 RMK A01 T00321052  RH  055%=      5-min Rain = 0
KBWS 091150Z 04003KT 03/M05 A3054 RMK A01 T00331052  RH  054%=      5-min Rain = 0
KBWS 091155Z 02002KT 03/M05 A3055 RMK A01 T00321053  RH  054%=      5-min Rain = 0
KBWS 091200Z 03003KT 03/M05 A3054 RMK A01 T00331054  RH  054%=      5-min Rain = 0
KBWS 091205Z 03003KT 03/M05 A3054 RMK A01 T00321050  RH  056%=      5-min Rain = 0
KBWS 091210Z 05004KT 03/M05 A3053 RMK A01 T00311047  RH  057%=      5-min Rain = 0
KBWS 091215Z 07004KT 03/M05 A3053 RMK A01 T00311047  RH  057%=      5-min Rain = 0
KBWS 091220Z 08004KT 03/M05 A3053 RMK A01 T00311050  RH  056%=      5-min Rain = 0
KBWS 091225Z 10004KT 03/M05 A3053 RMK A01 T00301046  RH  058%=      5-min Rain = 0
KBWS 091230Z 11004KT 03/M04 A3053 RMK A01 T00291044  RH  059%=      5-min Rain = 0
KBWS 091235Z 11003KT 03/M05 A3053 RMK A01 T00281045  RH  059%=      5-min Rain = 0
KBWS 091240Z 08003KT 03/M05 A3053 RMK A01 T00281045  RH  059%=      5-min Rain = 0
KBWS 091245Z 05002KT 03/M05 A3053 RMK A01 T00291046  RH  059%=      5-min Rain = 0
KBWS 091250Z 03002KT 03/M05 A3054 RMK A01 T00281047  RH  059%=      5-min Rain = 0
KBWS 091255Z 01002KT 03/M05 A3054 RMK A01 T00271046  RH  059%=      5-min Rain = 0
KBWS 091300Z 03002KT 03/M05 A3053 RMK A01 T00271047  RH  059%=      5-min Rain = 0
KBWS 091305Z 03002KT 03/M05 A3053 RMK A01 T00281048  RH  058%=      5-min Rain = 0
KBWS 091310Z 04003KT 03/M05 A3053 RMK A01 T00281048  RH  058%=      5-min Rain = 0
KBWS 091315Z 05003KT 03/M05 A3053 RMK A01 T00281047  RH  058%=      5-min Rain = 0
KBWS 091320Z 06003KT 03/M05 A3053 RMK A01 T00291046  RH  058%=      5-min Rain = 0
KBWS 091325Z 06003KT 03/M05 A3053 RMK A01 T00291046  RH  059%=      5-min Rain = 0
KBWS 091330Z 06004KT 03/M05 A3053 RMK A01 T00291045  RH  059%=      5-min Rain = 0
KBWS 091335Z 06004KT 03/M05 A3053 RMK A01 T00281046  RH  059%=      5-min Rain = 0
KBWS 091340Z 06004KT 03/M04 A3053 RMK A01 T00271044  RH  060%=      5-min Rain = 0
KBWS 091345Z 06003KT 03/M05 A3054 RMK A01 T00271045  RH  060%=      5-min Rain = 0
KBWS 091350Z 10002KT 03/M05 A3054 RMK A01 T00261046  RH  059%=      5-min Rain = 0
KBWS 091355Z 11002KT 03/M05 A3054 RMK A01 T00261047  RH  059%=      5-min Rain = 0
KBWS 091400Z 11003KT 03/M05 A3054 RMK A01 T00251047  RH  060%=      5-min Rain = 0
KBWS 091405Z 12004KT 02/M05 A3055 RMK A01 T00241048  RH  060%=      5-min Rain = 0
KBWS 091410Z 12004KT 02/M05 A3055 RMK A01 T00221048  RH  061%=      5-min Rain = 0
KBWS 091415Z 10003KT 02/M05 A3055 RMK A01 T00191046  RH  062%=      5-min Rain = 0
KBWS 091420Z 10003KT 02/M05 A3055 RMK A01 T00191049  RH  062%=      5-min Rain = 0
KBWS 091425Z 10003KT 02/M05 A3055 RMK A01 T00181050  RH  061%=      5-min Rain = 0
KBWS 091430Z 07003KT 02/M05 A3055 RMK A01 T00191047  RH  062%=      5-min Rain = 0
KBWS 091435Z 06002KT 02/M05 A3055 RMK A01 T00181048  RH  062%=      5-min Rain = 0
KBWS 091440Z 07004KT 02/M05 A3054 RMK A01 T00221045  RH  062%=      5-min Rain = 0
KBWS 091445Z 08003KT 03/M04 A3055 RMK A01 T00251042  RH  062%=      5-min Rain = 0
KBWS 091450Z 10003KT 03/M04 A3055 RMK A01 T00281043  RH  060%=      5-min Rain = 0
KBWS 091455Z 10003KT 03/M04 A3055 RMK A01 T00321044  RH  058%=      5-min Rain = 0
KBWS 091500Z 10002KT 03/M04 A3055 RMK A01 T00281044  RH  060%=      5-min Rain = 0
KBWS 091505Z 10002KT 03/M04 A3056 RMK A01 T00331041  RH  059%=      5-min Rain = 0
KBWS 091510Z 09003KT 04/M04 A3056 RMK A01 T00351043  RH  057%=      5-min Rain = 0
KBWS 091515Z 08004KT 04/M04 A3055 RMK A01 T00351043  RH  057%=      5-min Rain = 0
KBWS 091520Z 07004KT 04/M04 A3056 RMK A01 T00391042  RH  056%=      5-min Rain = 0
KBWS 091525Z 08005KT 04/M05 A3056 RMK A01 T00361045  RH  056%=      5-min Rain = 0
KBWS 091530Z 09004KT 04/M05 A3056 RMK A01 T00351045  RH  056%=      5-min Rain = 0
KBWS 091535Z 09005KT 04/M05 A3057 RMK A01 T00361046  RH  055%=      5-min Rain = 0
KBWS 091540Z 08004KT 04/M05 A3057 RMK A01 T00361047  RH  055%=      5-min Rain = 0
KBWS 091545Z 08004KT 04/M05 A3057 RMK A01 T00371046  RH  055%=      5-min Rain = 0
KBWS 091550Z 10005KT 04/M05 A3057 RMK A01 T00391045  RH  055%=      5-min Rain = 0
KBWS 091555Z 12004KT 04/M05 A3057 RMK A01 T00411045  RH  054%=      5-min Rain = 0
KBWS 091600Z 12008KT 04/M05 A3057 RMK A01 T00441050  RH  051%=      5-min Rain = 0
KBWS 091605Z 11008KT 05/M05 A3058 RMK A01 T00461053  RH  049%=      5-min Rain = 0
KBWS 091610Z 13009KT 05/M06 A3058 RMK A01 T00471055  RH  048%=      5-min Rain = 0
KBWS 091615Z 12009KT 05/M06 A3058 RMK A01 T00481056  RH  047%=      5-min Rain = 0
KBWS 091620Z 12007KT 05/M05 A3058 RMK A01 T00501053  RH  048%=      5-min Rain = 0
KBWS 091625Z 12010KT 05/M06 A3058 RMK A01 T00541057  RH  045%=      5-min Rain = 0
KBWS 091630Z 12010KT 06/M06 A3058 RMK A01 T00571059  RH  044%=      5-min Rain = 0
KBWS 091635Z 11010KT 06/M06 A3057 RMK A01 T00571058  RH  044%=      5-min Rain = 0
KBWS 091640Z 12008KT 06/M06 A3057 RMK A01 T00581057  RH  044%=      5-min Rain = 0
KBWS 091645Z 12009KT 06/M06 A3058 RMK A01 T00601057  RH  043%=      5-min Rain = 0
KBWS 091650Z 13008KT 06/M06 A3057 RMK A01 T00621056  RH  043%=      5-min Rain = 0
KBWS 091655Z 12008KT 06/M06 A3057 RMK A01 T00631055  RH  043%=      5-min Rain = 0
KBWS 091700Z 12008KT 06/M06 A3057 RMK A01 T00631056  RH  043%=      5-min Rain = 0
KBWS 091705Z 13009KT 06/M06 A3057 RMK A01 T00631055  RH  043%=      5-min Rain = 0
KBWS 091710Z 13008KT 07/M05 A3057 RMK A01 T00661053  RH  043%=      5-min Rain = 0
KBWS 091715Z 13006KT 07/M05 A3056 RMK A01 T00671052  RH  043%=      5-min Rain = 0
KBWS 091720Z 11008KT 07/M05 A3056 RMK A01 T00671053  RH  043%=      5-min Rain = 0
KBWS 091725Z 12007KT 07/M05 A3055 RMK A01 T00671053  RH  042%=      5-min Rain = 0
KBWS 091730Z 11006KT 07/M05 A3055 RMK A01 T00691052  RH  042%=      5-min Rain = 0
KBWS 091735Z 11007KT 07/M06 A3054 RMK A01 T00711055  RH  041%=      5-min Rain = 0
KBWS 091740Z 12007KT 07/M06 A3054 RMK A01 T00721055  RH  040%=      5-min Rain = 0
KBWS 091745Z 12005KT 08/M06 A3054 RMK A01 T00761056  RH  039%=      5-min Rain = 0
KBWS 091750Z 14007KT 08/M06 A3054 RMK A01 T00791055  RH  038%=      5-min Rain = 0
KBWS 091755Z 13006KT 08/M06 A3054 RMK A01 T00781056  RH  038%=      5-min Rain = 0
KBWS 091800Z 16005KT 08/M06 A3054 RMK A01 T00801058  RH  038%=      5-min Rain = 0
KBWS 091805Z 13007KT 08/M05 A3053 RMK A01 T00821054  RH  038%=      5-min Rain = 0
KBWS 091810Z 12006KT 08/M06 A3053 RMK A01 T00811057  RH  037%=      5-min Rain = 0
KBWS 091815Z 14007KT 08/M06 A3052 RMK A01 T00831057  RH  037%=      5-min Rain = 0
KBWS 091820Z 13008KT 09/M06 A3051 RMK A01 T00851057  RH  037%=      5-min Rain = 0
KBWS 091825Z 13007KT 09/M06 A3051 RMK A01 T00861056  RH  036%=      5-min Rain = 0
KBWS 091830Z 14007G13KT 09/M06 A305 RMK A01 T00871055  RH  036%=      5-min Rain = 0
KBWS 091835Z 13008KT 09/M06 A3049 RMK A01 T00911055  RH  036%=      5-min Rain = 0
KBWS 091840Z 12007KT 09/M06 A3048 RMK A01 T00911055  RH  035%=      5-min Rain = 0
KBWS 091845Z 13009G14KT 10/M06 A3048 RMK A01 T00951055  RH  035%=      5-min Rain = 0
KBWS 091850Z 12007KT 09/M06 A3048 RMK A01 T00941059  RH  034%=      5-min Rain = 0
KBWS 091855Z 13009KT 10/M06 A3047 RMK A01 T00981061  RH  032%=      5-min Rain = 0
KBWS 091900Z 15011KT 10/M08 A3047 RMK A01 T01001079  RH  028%=      5-min Rain = 0
KBWS 091905Z 16009KT 10/M07 A3046 RMK A01 T01021071  RH  029%=      5-min Rain = 0
KBWS 091910Z 14012KT 10/M07 A3046 RMK A01 T01021066  RH  030%=      5-min Rain = 0
KBWS 091915Z 17012KT 10/M08 A3046 RMK A01 T01001077  RH  028%=      5-min Rain = 0
KBWS 091920Z 15012KT 10/M07 A3046 RMK A01 T00991070  RH  030%=      5-min Rain = 0
KBWS 091925Z 17010KT 10/M07 A3045 RMK A01 T00991069  RH  030%=      5-min Rain = 0
KBWS 091930Z 15011KT 10/M07 A3045 RMK A01 T00971070  RH  030%=      5-min Rain = 0
KBWS 091935Z 15009KT 10/M07 A3045 RMK A01 T01011066  RH  030%=      5-min Rain = 0
KBWS 091940Z 16011KT 11/M07 A3045 RMK A01 T01051072  RH  029%=      5-min Rain = 0
KBWS 091945Z 16009KT 11/M07 A3044 RMK A01 T01071073  RH  028%=      5-min Rain = 0
KBWS 091950Z 15010KT 11/M07 A3043 RMK A01 T01051074  RH  028%=      5-min Rain = 0
KBWS 091955Z 15010G15KT 11/M08 A3043 RMK A01 T01051078  RH  027%=      5-min Rain = 0
KBWS 092000Z 16010KT 11/M08 A3043 RMK A01 T01061076  RH  027%=      5-min Rain = 0
KBWS 092005Z 16010KT 11/M08 A3043 RMK A01 T01061079  RH  027%=      5-min Rain = 0
KBWS 092010Z 15010KT 11/M07 A3042 RMK A01 T01071073  RH  028%=      5-min Rain = 0
KBWS 092015Z 14009KT 11/M07 A3042 RMK A01 T01081074  RH  027%=      5-min Rain = 0
KBWS 092020Z 17009KT 10/M08 A3042 RMK A01 T01041076  RH  028%=      5-min Rain = 0
KBWS 092025Z 15008G14KT 10/M07 A3042 RMK A01 T01021072  RH  029%=      5-min Rain = 0
KBWS 092030Z 16009G15KT 10/M07 A3042 RMK A01 T01011072  RH  029%=      5-min Rain = 0
KBWS 092035Z 17010KT 11/M07 A3042 RMK A01 T01061072  RH  028%=      5-min Rain = 0
KBWS 092040Z 16008G13KT 11/M07 A3042 RMK A01 T01101070  RH  028%=      5-min Rain = 0
KBWS 092045Z 16010KT 11/M07 A3042 RMK A01 T01121068  RH  028%=      5-min Rain = 0
KBWS 092050Z 16009KT 10/M08 A3042 RMK A01 T01041075  RH  028%=      5-min Rain = 0
KBWS 092055Z 14008KT 10/M07 A3041 RMK A01 T01011072  RH  029%=      5-min Rain = 0
KBWS 092100Z 16010KT 10/M07 A3041 RMK A01 T01041071  RH  029%=      5-min Rain = 0
KBWS 092105Z 16009KT 11/M08 A3041 RMK A01 T01051075  RH  028%=      5-min Rain = 0
KBWS 092110Z 17010KT 11/M07 A3041 RMK A01 T01061072  RH  028%=      5-min Rain = 0
KBWS 092115Z 16009KT 10/M08 A3041 RMK A01 T01031075  RH  028%=      5-min Rain = 0
KBWS 092120Z 15007KT 10/M08 A3041 RMK A01 T01031075  RH  028%=      5-min Rain = 0
KBWS 092125Z 15008KT 10/M07 A3041 RMK A01 T01021074  RH  029%=      5-min Rain = 0
KBWS 092130Z 17009KT 10/M08 A3041 RMK A01 T01011076  RH  028%=      5-min Rain = 0
KBWS 092135Z 16008KT 10/M08 A3041 RMK A01 T01011075  RH  028%=      5-min Rain = 0
KBWS 092140Z 16007KT 10/M07 A3041 RMK A01 T01041073  RH  029%=      5-min Rain = 0
KBWS 092145Z 15009KT 11/M07 A304 RMK A01 T01071067  RH  029%=      5-min Rain = 0
KBWS 092150Z 16011KT 11/M07 A304 RMK A01 T01071069  RH  029%=      5-min Rain = 0
KBWS 092155Z 16010KT 11/M07 A304 RMK A01 T01081066  RH  029%=      5-min Rain = 0
KBWS 092200Z 16009KT 11/M07 A3039 RMK A01 T01111069  RH  028%=      5-min Rain = 0
KBWS 092205Z 16009KT 11/M07 A304 RMK A01 T01111068  RH  028%=      5-min Rain = 0
KBWS 092210Z 15007KT 11/M07 A3039 RMK A01 T01111070  RH  028%=      5-min Rain = 0
KBWS 092215Z 15009KT 11/M07 A3039 RMK A01 T01081069  RH  028%=      5-min Rain = 0
KBWS 092220Z 15009KT 11/M07 A3039 RMK A01 T01081067  RH  029%=      5-min Rain = 0
KBWS 092225Z 17008KT 11/M07 A3039 RMK A01 T01051070  RH  029%=      5-min Rain = 0
KBWS 092230Z 17008KT 10/M07 A3039 RMK A01 T01011071  RH  029%=      5-min Rain = 0
KBWS 092235Z 16009KT 10/M06 A304 RMK A01 T01001064  RH  031%=      5-min Rain = 0
KBWS 092240Z 17009KT 10/M07 A304 RMK A01 T00991069  RH  030%=      5-min Rain = 0
KBWS 092245Z 17009KT 10/M07 A304 RMK A01 T00971071  RH  030%=      5-min Rain = 0
KBWS 092250Z 16007KT 10/M07 A304 RMK A01 T00971068  RH  031%=      5-min Rain = 0
KBWS 092255Z 16007KT 10/M07 A3039 RMK A01 T00971067  RH  031%=      5-min Rain = 0
KBWS 092300Z 15009KT 10/M07 A3038 RMK A01 T00961068  RH  031%=      5-min Rain = 0
KBWS 092305Z 14008KT 10/M07 A3038 RMK A01 T00951065  RH  032%=      5-min Rain = 0
KBWS 092310Z 15009KT 10/M07 A3038 RMK A01 T00951070  RH  031%=      5-min Rain = 0
KBWS 092315Z 16008KT 10/M07 A3038 RMK A01 T00951068  RH  031%=      5-min Rain = 0
KBWS 092320Z 16009KT 10/M07 A3038 RMK A01 T00951070  RH  031%=      5-min Rain = 0
KBWS 092325Z 16008KT 10/M07 A3038 RMK A01 T00951068  RH  031%=      5-min Rain = 0
KBWS 092330Z 16008KT 09/M07 A3038 RMK A01 T00941065  RH  032%=      5-min Rain = 0
KBWS 092335Z 16008KT 09/M07 A3038 RMK A01 T00941069  RH  031%=      5-min Rain = 0
KBWS 092340Z 17007KT 09/M07 A3038 RMK A01 T00921067  RH  032%=      5-min Rain = 0
KBWS 092345Z 16006KT 09/M06 A3038 RMK A01 T00891060  RH  035%=      5-min Rain = 0
KBWS 092350Z 15007KT 09/M06 A3038 RMK A01 T00871058  RH  036%=      5-min Rain = 0
KBWS 092355Z 15008KT 09/M06 A3037 RMK A01 T00861058  RH  036%=      5-min Rain = 0
KBWS 100000Z 15008KT 09/M06 A3037 RMK A01 T00861060  RH  036%=      5-min Rain = 0
KBWS 100005Z 15007KT 09/M06 A3037 RMK A01 T00861059  RH  036%=      5-min Rain = 0
KBWS 100010Z 15007KT 09/M06 A3037 RMK A01 T00861058  RH  036%=      5-min Rain = 0
KBWS 100015Z 14007KT 09/M06 A3036 RMK A01 T00851057  RH  036%=      5-min Rain = 0
KBWS 100020Z 14006KT 08/M06 A3036 RMK A01 T00841056  RH  037%=      5-min Rain = 0
KBWS 100025Z 15006KT 08/M06 A3036 RMK A01 T00841055  RH  037%=      5-min Rain = 0
KBWS 100030Z 14006KT 08/M05 A3036 RMK A01 T00831053  RH  038%=      5-min Rain = 0
KBWS 100035Z 14007KT 08/M05 A3036 RMK A01 T00811053  RH  039%=      5-min Rain = 0
KBWS 100040Z 16006KT 08/M05 A3037 RMK A01 T00801053  RH  039%=      5-min Rain = 0
KBWS 100045Z 17007KT 08/M05 A3037 RMK A01 T00811054  RH  038%=      5-min Rain = 0
KBWS 100050Z 17007KT 08/M05 A3037 RMK A01 T00801054  RH  039%=      5-min Rain = 0
KBWS 100055Z 17007KT 08/M05 A3037 RMK A01 T00791053  RH  039%=      5-min Rain = 0
KBWS 100100Z 17007KT 08/M05 A3037 RMK A01 T00781053  RH  039%=      5-min Rain = 0
KBWS 100105Z 17006KT 08/M05 A3037 RMK A01 T00771052  RH  040%=      5-min Rain = 0
KBWS 100110Z 17006KT 08/M05 A3037 RMK A01 T00771052  RH  040%=      5-min Rain = 0
KBWS 100115Z 17006KT 08/M05 A3037 RMK A01 T00761051  RH  041%=      5-min Rain = 0
KBWS 100120Z 16005KT 08/M05 A3037 RMK A01 T00751045  RH  043%=      5-min Rain = 0
KBWS 100125Z 15007KT 07/M04 A3036 RMK A01 T00741043  RH  044%=      5-min Rain = 0
KBWS 100130Z 15007KT 07/M05 A3036 RMK A01 T00741045  RH  043%=      5-min Rain = 0
KBWS 100135Z 15007KT 08/M05 A3036 RMK A01 T00751046  RH  043%=      5-min Rain = 0
KBWS 100140Z 15006KT 08/M05 A3036 RMK A01 T00751046  RH  042%=      5-min Rain = 0
KBWS 100145Z 16006KT 08/M05 A3036 RMK A01 T00751046  RH  042%=      5-min Rain = 0
KBWS 100150Z 15006KT 08/M04 A3036 RMK A01 T00751039  RH  045%=      5-min Rain = 0
KBWS 100155Z 14005KT 07/M04 A3035 RMK A01 T00741036  RH  046%=      5-min Rain = 0
KBWS 100200Z 13006KT 07/M04 A3035 RMK A01 T00721037  RH  046%=      5-min Rain = 0
KBWS 100205Z 13005KT 07/M04 A3035 RMK A01 T00731040  RH  045%=      5-min Rain = 0
KBWS 100210Z 13005KT 07/M04 A3035 RMK A01 T00731038  RH  046%=      5-min Rain = 0
KBWS 100215Z 15005KT 07/M04 A3036 RMK A01 T00731038  RH  046%=      5-min Rain = 0
KBWS 100220Z 15005KT 07/M04 A3036 RMK A01 T00741038  RH  045%=      5-min Rain = 0
KBWS 100225Z 14005KT 07/M04 A3036 RMK A01 T00741037  RH  046%=      5-min Rain = 0
KBWS 100230Z 14006KT 07/M04 A3036 RMK A01 T00731035  RH  047%=      5-min Rain = 0
KBWS 100235Z 15007KT 07/M04 A3036 RMK A01 T00741036  RH  046%=      5-min Rain = 0
KBWS 100240Z 15007KT 08/M04 A3036 RMK A01 T00761036  RH  046%=      5-min Rain = 0
KBWS 100245Z 16006KT 08/M04 A3037 RMK A01 T00761039  RH  044%=      5-min Rain = 0
KBWS 100250Z 16006KT 08/M04 A3037 RMK A01 T00761037  RH  045%=      5-min Rain = 0
KBWS 100255Z 17007KT 08/M04 A3037 RMK A01 T00771037  RH  045%=      5-min Rain = 0
KBWS 100300Z 17006KT 08/M03 A3037 RMK A01 T00751034  RH  046%=      5-min Rain = 0
KBWS 100305Z 17007KT 08/M04 A3037 RMK A01 T00761035  RH  046%=      5-min Rain = 0
KBWS 100310Z 16008KT 08/M03 A3036 RMK A01 T00761033  RH  047%=      5-min Rain = 0
KBWS 100315Z 16007KT 08/M03 A3036 RMK A01 T00751029  RH  048%=      5-min Rain = 0
KBWS 100320Z 16006KT 08/M03 A3036 RMK A01 T00751026  RH  049%=      5-min Rain = 0
KBWS 100325Z 15005KT 07/M02 A3035 RMK A01 T00731023  RH  051%=      5-min Rain = 0
KBWS 100330Z 15007KT 07/M02 A3035 RMK A01 T00701024  RH  052%=      5-min Rain = 0
KBWS 100335Z 15007KT 07/M03 A3035 RMK A01 T00691027  RH  051%=      5-min Rain = 0
KBWS 100340Z 15007KT 07/M03 A3035 RMK A01 T00691029  RH  050%=      5-min Rain = 0
KBWS 100345Z 16006KT 07/M03 A3035 RMK A01 T00691028  RH  051%=      5-min Rain = 0
KBWS 100350Z 17005KT 07/M03 A3035 RMK A01 T00691028  RH  051%=      5-min Rain = 0
KBWS 100355Z 16007KT 07/M03 A3034 RMK A01 T00691025  RH  052%=      5-min Rain = 0
KBWS 100400Z 16008KT 07/M02 A3034 RMK A01 T00681022  RH  053%=      5-min Rain = 0
KBWS 100405Z 17008KT 07/M02 A3034 RMK A01 T00691023  RH  053%=      5-min Rain = 0
KBWS 100410Z 17010KT 07/M04 A3034 RMK A01 T00711036  RH  047%=      5-min Rain = 0
KBWS 100415Z 18009KT 07/M04 A3034 RMK A01 T00731041  RH  045%=      5-min Rain = 0
KBWS 100420Z 18009KT 07/M04 A3034 RMK A01 T00741043  RH  044%=      5-min Rain = 0
KBWS 100425Z 18009KT 07/M04 A3034 RMK A01 T00741043  RH  044%=      5-min Rain = 0
KBWS 100430Z 18010KT 07/M04 A3034 RMK A01 T00741043  RH  044%=      5-min Rain = 0
KBWS 100435Z 18010KT 07/M04 A3034 RMK A01 T00741043  RH  044%=      5-min Rain = 0
KBWS 100440Z 19009KT 07/M04 A3034 RMK A01 T00741043  RH  044%=      5-min Rain = 0
KBWS 100445Z 18008KT 07/M04 A3033 RMK A01 T00731042  RH  044%=      5-min Rain = 0
KBWS 100450Z 18009KT 07/M04 A3033 RMK A01 T00731042  RH  044%=      5-min Rain = 0
KBWS 100455Z 18008KT 07/M04 A3033 RMK A01 T00731040  RH  045%=      5-min Rain = 0
KBWS 100500Z 19010KT 07/M04 A3034 RMK A01 T00731040  RH  045%=      5-min Rain = 0
KBWS 100505Z 19009KT 07/M04 A3034 RMK A01 T00731039  RH  045%=      5-min Rain = 0
KBWS 100510Z 19008KT 07/M04 A3034 RMK A01 T00731037  RH  046%=      5-min Rain = 0
KBWS 100515Z 19007KT 07/M04 A3034 RMK A01 T00731036  RH  046%=      5-min Rain = 0
KBWS 100520Z 20007KT 07/M02 A3034 RMK A01 T00701023  RH  052%=      5-min Rain = 0
KBWS 100525Z 20006KT 07/M02 A3034 RMK A01 T00671015  RH  057%=      5-min Rain = 0
KBWS 100530Z 19005KT 07/M01 A3034 RMK A01 T00651010  RH  059%=      5-min Rain = 0
KBWS 100535Z 17007KT 07/M01 A3032 RMK A01 T00651011  RH  059%=      5-min Rain = 0
KBWS 100540Z 18006KT 07/M01 A3033 RMK A01 T00661012  RH  058%=      5-min Rain = 0
KBWS 100545Z 21004KT 07/M01 A3034 RMK A01 T00661013  RH  058%=      5-min Rain = 0
KBWS 100550Z 21004KT 07/M02 A3033 RMK A01 T00671018  RH  056%=      5-min Rain = 0
KBWS 100555Z 22004KT 07/M01 A3033 RMK A01 T00671014  RH  057%=      5-min Rain = 0

Page generated in 0.009 seconds.